createdAt,value
2017-04-16T00:00:04.778Z,74.16
2017-04-16T00:01:05.165Z,74.03
2017-04-16T00:02:05.846Z,74.42
2017-04-16T00:03:06.232Z,74.55
2017-04-16T00:04:06.763Z,74.29
2017-04-16T00:05:07.289Z,74.08
2017-04-16T00:06:07.817Z,74.79
2017-04-16T00:07:08.350Z,74.60
2017-04-16T00:08:08.908Z,74.81
2017-04-16T00:09:09.411Z,74.87
2017-04-16T00:10:09.953Z,74.92
2017-04-16T00:11:10.473Z,75.07
2017-04-16T00:12:11.008Z,75.05
2017-04-16T00:13:11.535Z,75.39
2017-04-16T00:14:12.212Z,75.49
2017-04-16T00:15:12.598Z,75.73
2017-04-16T00:16:13.126Z,76.49
2017-04-16T00:17:13.663Z,76.65
2017-04-16T00:18:14.194Z,76.70
2017-04-16T00:19:14.724Z,76.91
2017-04-16T00:20:15.401Z,76.89
2017-04-16T00:21:15.784Z,77.23
2017-04-16T00:22:16.462Z,77.81
2017-04-16T00:23:16.854Z,77.62
2017-04-16T00:24:17.376Z,77.44
2017-04-16T00:25:17.905Z,77.57
2017-04-16T00:26:18.441Z,77.97
2017-04-16T00:27:18.972Z,76.54
2017-04-16T00:28:19.500Z,76.26
2017-04-16T00:29:20.031Z,76.26
2017-04-16T00:30:20.562Z,76.20
2017-04-16T00:31:21.098Z,76.02
2017-04-16T00:32:21.624Z,76.39
2017-04-16T00:33:22.156Z,76.44
2017-04-16T00:34:22.694Z,76.91
2017-04-16T00:35:23.215Z,77.25
2017-04-16T00:36:23.746Z,77.12
2017-04-16T00:37:24.286Z,77.65
2017-04-16T00:38:24.811Z,78.25
2017-04-16T00:39:25.346Z,78.41
2017-04-16T00:40:25.880Z,78.73
2017-04-16T00:41:26.416Z,77.28
2017-04-16T00:42:26.949Z,77.17
2017-04-16T00:43:27.483Z,77.15
2017-04-16T00:44:28.163Z,77.07
2017-04-16T00:45:28.543Z,76.99
2017-04-16T00:46:29.074Z,76.91
2017-04-16T00:47:29.599Z,75.81
2017-04-16T00:48:30.129Z,76.83
2017-04-16T00:49:30.661Z,75.73
2017-04-16T00:50:31.191Z,75.02
2017-04-16T00:51:31.720Z,74.32
2017-04-16T00:52:32.250Z,74.34
2017-04-16T00:53:32.794Z,74.08
2017-04-16T00:54:33.305Z,72.72
2017-04-16T00:55:33.837Z,72.48
2017-04-16T00:56:34.511Z,72.56
2017-04-16T00:57:34.899Z,72.09
2017-04-16T00:58:35.434Z,72.33
2017-04-16T00:59:35.956Z,72.51
2017-04-16T01:00:36.488Z,72.36
2017-04-16T01:01:37.018Z,73.03
2017-04-16T01:02:37.550Z,73.14
2017-04-16T01:03:38.081Z,72.80
2017-04-16T01:04:38.612Z,72.77
2017-04-16T01:05:39.151Z,73.06
2017-04-16T01:06:39.671Z,73.48
2017-04-16T01:07:40.206Z,73.95
2017-04-16T01:08:40.732Z,74.34
2017-04-16T01:09:41.263Z,74.92
2017-04-16T01:10:41.791Z,75.18
2017-04-16T01:11:42.322Z,75.84
2017-04-16T01:12:42.846Z,75.76
2017-04-16T01:13:43.382Z,75.23
2017-04-16T01:14:43.915Z,74.63
2017-04-16T01:15:44.447Z,74.42
2017-04-16T01:16:44.975Z,73.95
2017-04-16T01:17:45.507Z,73.74
2017-04-16T01:18:46.066Z,72.80
2017-04-16T01:19:46.578Z,73.14
2017-04-16T01:20:47.258Z,73.58
2017-04-16T01:21:47.955Z,73.42
2017-04-16T01:22:48.201Z,73.22
2017-04-16T01:23:48.713Z,73.48
2017-04-16T01:24:49.393Z,73.48
2017-04-16T01:25:49.773Z,73.06
2017-04-16T01:26:50.456Z,73.61
2017-04-16T01:27:50.834Z,73.66
2017-04-16T01:28:51.366Z,73.61
2017-04-16T01:29:51.896Z,73.95
2017-04-16T01:30:52.430Z,73.32
2017-04-16T01:31:53.102Z,73.63
2017-04-16T01:32:53.501Z,73.82
2017-04-16T01:33:54.021Z,73.89
2017-04-16T01:34:54.546Z,74.08
2017-04-16T01:35:55.078Z,74.55
2017-04-16T01:36:55.604Z,75.02
2017-04-16T01:37:56.151Z,74.81
2017-04-16T01:38:56.816Z,75.23
2017-04-16T01:39:57.204Z,75.44
2017-04-16T01:40:57.730Z,75.65
2017-04-16T01:41:58.260Z,75.57
2017-04-16T01:42:58.795Z,75.39
2017-04-16T01:43:59.321Z,75.44
2017-04-16T01:44:59.859Z,75.47
2017-04-16T01:46:00.386Z,75.62
2017-04-16T01:47:01.066Z,75.62
2017-04-16T01:48:01.445Z,75.89
2017-04-16T01:49:01.975Z,75.68
2017-04-16T01:50:02.507Z,75.68
2017-04-16T01:51:03.033Z,75.73
2017-04-16T01:52:03.715Z,75.94
2017-04-16T01:53:04.099Z,76.18
2017-04-16T01:54:04.631Z,76.15
2017-04-16T01:55:05.158Z,76.28
2017-04-16T01:56:05.693Z,76.83
2017-04-16T01:57:06.226Z,76.91
2017-04-16T01:58:06.769Z,77.07
2017-04-16T01:59:07.282Z,77.44
2017-04-16T02:00:07.814Z,77.59
2017-04-16T02:01:08.343Z,77.73
2017-04-16T02:02:08.880Z,77.86
2017-04-16T02:03:09.409Z,77.94
2017-04-16T02:04:09.946Z,78.20
2017-04-16T02:05:10.477Z,78.01
2017-04-16T02:06:11.012Z,78.20
2017-04-16T02:07:11.545Z,78.20
2017-04-16T02:08:12.077Z,78.33
2017-04-16T02:09:12.614Z,78.67
2017-04-16T02:10:13.141Z,78.54
2017-04-16T02:11:13.822Z,78.73
2017-04-16T02:12:14.205Z,78.59
2017-04-16T02:13:14.738Z,78.83
2017-04-16T02:14:15.266Z,78.75
2017-04-16T02:15:15.806Z,78.59
2017-04-16T02:16:16.328Z,78.75
2017-04-16T02:17:16.858Z,78.86
2017-04-16T02:18:17.386Z,79.10
2017-04-16T02:19:17.922Z,79.33
2017-04-16T02:20:18.597Z,79.57
2017-04-16T02:21:18.975Z,79.89
2017-04-16T02:22:19.515Z,80.18
2017-04-16T02:23:20.044Z,80.26
2017-04-16T02:24:20.597Z,80.23
2017-04-16T02:25:21.107Z,80.29
2017-04-16T02:26:21.636Z,80.49
2017-04-16T02:27:22.169Z,80.39
2017-04-16T02:28:22.704Z,80.65
2017-04-16T02:29:23.242Z,80.79
2017-04-16T02:30:23.767Z,81.24
2017-04-16T02:31:24.294Z,81.66
2017-04-16T02:32:24.969Z,81.71
2017-04-16T02:33:25.355Z,81.63
2017-04-16T02:34:25.893Z,81.52
2017-04-16T02:35:26.416Z,81.76
2017-04-16T02:36:26.950Z,81.58
2017-04-16T02:37:27.476Z,82.35
2017-04-16T02:38:28.023Z,82.69
2017-04-16T02:39:28.569Z,82.16
2017-04-16T02:40:29.064Z,82.93
2017-04-16T02:41:29.594Z,83.91
2017-04-16T02:42:30.129Z,84.05
2017-04-16T02:43:30.656Z,84.05
2017-04-16T02:44:31.197Z,84.31
2017-04-16T02:45:31.727Z,84.63
2017-04-16T02:46:32.263Z,85.19
2017-04-16T02:47:32.795Z,84.95
2017-04-16T02:48:33.334Z,85.16
2017-04-16T02:49:33.863Z,85.58
2017-04-16T02:50:34.398Z,85.64
2017-04-16T02:51:34.930Z,85.38
2017-04-16T02:52:35.461Z,85.16
2017-04-16T02:53:36.001Z,84.92
2017-04-16T02:54:36.519Z,85.13
2017-04-16T02:55:37.045Z,85.61
2017-04-16T02:56:37.579Z,85.61
2017-04-16T02:57:38.263Z,85.61
2017-04-16T02:58:38.648Z,85.69
2017-04-16T02:59:39.322Z,85.85
2017-04-16T03:00:39.704Z,85.50
2017-04-16T03:01:40.238Z,86.01
2017-04-16T03:02:40.765Z,86.41
2017-04-16T03:03:41.293Z,86.15
2017-04-16T03:04:41.826Z,86.01
2017-04-16T03:05:42.356Z,86.25
2017-04-16T03:06:42.890Z,86.30
2017-04-16T03:07:43.420Z,86.38
2017-04-16T03:08:43.948Z,85.91
2017-04-16T03:09:44.514Z,86.25
2017-04-16T03:10:45.013Z,86.91
2017-04-16T03:11:45.696Z,86.97
2017-04-16T03:12:46.080Z,86.79
2017-04-16T03:13:46.605Z,86.63
2017-04-16T03:14:47.137Z,86.01
2017-04-16T03:15:47.816Z,86.71
2017-04-16T03:16:48.202Z,87.24
2017-04-16T03:17:48.879Z,87.56
2017-04-16T03:18:49.262Z,87.59
2017-04-16T03:19:49.799Z,87.56
2017-04-16T03:20:50.468Z,87.59
2017-04-16T03:21:50.889Z,87.77
2017-04-16T03:22:51.395Z,87.21
2017-04-16T03:23:51.915Z,88.41
2017-04-16T03:24:52.448Z,88.36
2017-04-16T03:25:53.131Z,88.09
2017-04-16T03:26:53.516Z,87.59
2017-04-16T03:27:54.049Z,87.48
2017-04-16T03:28:54.584Z,87.53
2017-04-16T03:29:55.115Z,87.77
2017-04-16T03:30:55.651Z,87.45
2017-04-16T03:31:56.325Z,87.88
2017-04-16T03:32:56.711Z,87.69
2017-04-16T03:33:57.240Z,87.82
2017-04-16T03:34:57.769Z,88.50
2017-04-16T03:35:58.297Z,88.71
2017-04-16T03:36:58.830Z,88.76
2017-04-16T03:37:59.360Z,88.52
2017-04-16T03:38:59.891Z,88.33
2017-04-16T03:40:00.422Z,88.52
2017-04-16T03:41:00.951Z,88.20
2017-04-16T03:42:01.485Z,88.79
2017-04-16T03:43:02.018Z,89.51
2017-04-16T03:44:02.552Z,89.94
2017-04-16T03:45:03.077Z,89.51
2017-04-16T03:46:03.757Z,89.78
2017-04-16T03:47:04.140Z,90.45
2017-04-16T03:48:04.674Z,90.74
2017-04-16T03:49:05.202Z,89.94
2017-04-16T03:50:05.729Z,89.27
2017-04-16T03:51:06.265Z,89.16
2017-04-16T03:52:06.788Z,89.03
2017-04-16T03:53:07.320Z,89.03
2017-04-16T03:54:07.848Z,88.73
2017-04-16T03:55:08.377Z,88.87
2017-04-16T03:56:08.916Z,88.79
2017-04-16T03:57:09.438Z,89.29
2017-04-16T03:58:09.999Z,89.43
2017-04-16T03:59:10.501Z,89.97
2017-04-16T04:00:11.033Z,90.34
2017-04-16T04:01:11.566Z,90.77
2017-04-16T04:02:12.099Z,90.66
2017-04-16T04:03:12.634Z,91.25
2017-04-16T04:04:13.159Z,91.11
2017-04-16T04:05:13.689Z,91.82
2017-04-16T04:06:14.223Z,91.41
2017-04-16T04:07:14.761Z,91.65
2017-04-16T04:08:15.291Z,92.08
2017-04-16T04:09:15.824Z,92.38
2017-04-16T04:10:16.361Z,92.14
2017-04-16T04:11:16.885Z,92.84
2017-04-16T04:12:17.414Z,92.95
2017-04-16T04:13:18.091Z,92.68
2017-04-16T04:14:18.483Z,93.21
2017-04-16T04:15:19.011Z,93.37
2017-04-16T04:16:19.692Z,93.10
2017-04-16T04:17:20.078Z,93.26
2017-04-16T04:18:20.623Z,93.21
2017-04-16T04:19:21.135Z,93.51
2017-04-16T04:20:21.662Z,94.04
2017-04-16T04:21:22.188Z,94.02
2017-04-16T04:22:22.723Z,93.81
2017-04-16T04:23:23.255Z,94.53
2017-04-16T04:24:23.784Z,94.48
2017-04-16T04:25:24.312Z,94.29
2017-04-16T04:26:24.843Z,94.15
2017-04-16T04:27:25.377Z,94.37
2017-04-16T04:28:25.905Z,95.26
2017-04-16T04:29:26.441Z,95.47
2017-04-16T04:30:26.970Z,96.15
2017-04-16T04:31:27.505Z,96.53
2017-04-16T04:32:28.185Z,96.91
2017-04-16T04:33:28.572Z,96.96
2017-04-16T04:34:29.095Z,97.28
2017-04-16T04:35:29.630Z,97.15
2017-04-16T04:36:30.155Z,96.93
2017-04-16T04:37:30.689Z,96.85
2017-04-16T04:38:31.221Z,96.66
2017-04-16T04:39:31.751Z,96.42
2017-04-16T04:40:32.277Z,96.45
2017-04-16T04:41:32.813Z,96.74
2017-04-16T04:42:33.491Z,97.10
2017-04-16T04:43:33.868Z,97.58
2017-04-16T04:44:34.405Z,97.74
2017-04-16T04:45:34.928Z,97.77
2017-04-16T04:46:35.458Z,97.88
2017-04-16T04:47:36.024Z,97.88
2017-04-16T04:48:36.674Z,97.66
2017-04-16T04:49:37.061Z,97.42
2017-04-16T04:50:37.591Z,97.34
2017-04-16T04:51:38.129Z,97.31
2017-04-16T04:52:38.818Z,97.23
2017-04-16T04:53:39.204Z,97.07
2017-04-16T04:54:39.731Z,96.93
2017-04-16T04:55:40.266Z,96.23
2017-04-16T04:56:40.795Z,95.07
2017-04-16T04:57:41.327Z,94.67
2017-04-16T04:58:41.855Z,94.67
2017-04-16T04:59:42.390Z,94.56
2017-04-16T05:00:43.066Z,94.61
2017-04-16T05:01:43.451Z,94.69
2017-04-16T05:02:43.979Z,94.83
2017-04-16T05:03:44.502Z,94.69
2017-04-16T05:04:45.035Z,94.56
2017-04-16T05:05:45.712Z,94.83
2017-04-16T05:06:46.092Z,94.75
2017-04-16T05:07:46.623Z,94.69
2017-04-16T05:08:47.179Z,94.48
2017-04-16T05:09:47.690Z,94.93
2017-04-16T05:10:48.221Z,95.10
2017-04-16T05:11:48.742Z,94.83
2017-04-16T05:12:49.274Z,94.56
2017-04-16T05:13:49.811Z,94.26
2017-04-16T05:14:50.335Z,94.04
2017-04-16T05:15:50.868Z,94.15
2017-04-16T05:16:51.429Z,93.96
2017-04-16T05:17:51.926Z,93.78
2017-04-16T05:18:52.453Z,93.64
2017-04-16T05:19:53.135Z,93.70
2017-04-16T05:20:53.517Z,93.56
2017-04-16T05:21:54.043Z,93.45
2017-04-16T05:22:54.722Z,93.43
2017-04-16T05:23:55.103Z,93.43
2017-04-16T05:24:55.785Z,93.10
2017-04-16T05:25:56.165Z,92.99
2017-04-16T05:26:56.847Z,93.24
2017-04-16T05:27:57.224Z,93.13
2017-04-16T05:28:57.910Z,92.97
2017-04-16T05:29:58.296Z,93.08
2017-04-16T05:30:58.840Z,92.68
2017-04-16T05:31:59.366Z,92.57
2017-04-16T05:32:59.903Z,92.24
2017-04-16T05:34:00.433Z,91.95
2017-04-16T05:35:00.972Z,91.60
2017-04-16T05:36:01.493Z,91.44
2017-04-16T05:37:02.029Z,90.93
2017-04-16T05:38:02.557Z,90.42
2017-04-16T05:39:03.089Z,89.62
2017-04-16T05:40:03.620Z,89.32
2017-04-16T05:41:04.160Z,88.92
2017-04-16T05:42:04.681Z,88.87
2017-04-16T05:43:05.215Z,88.65
2017-04-16T05:44:05.744Z,88.23
2017-04-16T05:45:06.283Z,88.15
2017-04-16T05:46:06.806Z,87.85
2017-04-16T05:47:07.336Z,87.69
2017-04-16T05:48:07.865Z,88.36
2017-04-16T05:49:08.395Z,88.04
2017-04-16T05:50:08.929Z,87.88
2017-04-16T05:51:09.484Z,87.56
2017-04-16T05:52:09.991Z,87.59
2017-04-16T05:53:10.674Z,87.34
2017-04-16T05:54:11.057Z,87.64
2017-04-16T05:55:11.583Z,87.34
2017-04-16T05:56:12.119Z,87.18
2017-04-16T05:57:12.665Z,87.21
2017-04-16T05:58:13.194Z,87.56
2017-04-16T05:59:13.711Z,86.91
2017-04-16T06:00:14.241Z,87.00
2017-04-16T06:01:14.774Z,86.12
2017-04-16T06:02:15.304Z,85.00
2017-04-16T06:03:15.832Z,84.36
2017-04-16T06:04:16.363Z,83.38
2017-04-16T06:05:17.048Z,82.40
2017-04-16T06:06:17.426Z,82.48
2017-04-16T06:07:17.958Z,82.43
2017-04-16T06:08:18.631Z,81.37
2017-04-16T06:09:19.017Z,80.68
2017-04-16T06:10:19.690Z,81.58
2017-04-16T06:11:20.075Z,81.56
2017-04-16T06:12:20.612Z,80.07
2017-04-16T06:13:21.294Z,79.49
2017-04-16T06:14:21.678Z,79.63
2017-04-16T06:15:22.211Z,79.52
2017-04-16T06:16:22.746Z,79.36
2017-04-16T06:17:23.425Z,80.21
2017-04-16T06:18:23.808Z,79.39
2017-04-16T06:19:24.334Z,78.75
2017-04-16T06:20:24.868Z,78.41
2017-04-16T06:21:25.550Z,79.47
2017-04-16T06:22:26.085Z,78.31
2017-04-16T06:23:26.462Z,78.62
2017-04-16T06:24:26.993Z,78.91
2017-04-16T06:25:27.524Z,79.39
2017-04-16T06:26:28.053Z,79.49
2017-04-16T06:27:28.587Z,78.59
2017-04-16T06:28:29.117Z,78.47
2017-04-16T06:29:29.648Z,77.81
2017-04-16T06:30:30.182Z,78.15
2017-04-16T06:31:30.707Z,77.44
2017-04-16T06:32:31.243Z,78.23
2017-04-16T06:33:31.773Z,77.97
2017-04-16T06:34:32.301Z,77.73
2017-04-16T06:35:32.824Z,78.36
2017-04-16T06:36:33.364Z,78.73
2017-04-16T06:37:34.043Z,79.10
2017-04-16T06:38:34.426Z,79.63
2017-04-16T06:39:34.962Z,82.27
2017-04-16T06:40:35.492Z,82.80
2017-04-16T06:41:36.032Z,83.51
2017-04-16T06:42:36.554Z,83.20
2017-04-16T06:43:37.085Z,82.61
2017-04-16T06:44:37.616Z,83.40
2017-04-16T06:45:38.147Z,83.36
2017-04-16T06:46:38.681Z,84.42
2017-04-16T06:47:39.211Z,81.40
2017-04-16T06:48:39.746Z,82.37
2017-04-16T06:49:40.281Z,82.11
2017-04-16T06:50:40.950Z,80.84
2017-04-16T06:51:41.333Z,81.50
2017-04-16T06:52:41.867Z,82.16
2017-04-16T06:53:42.399Z,81.58
2017-04-16T06:54:42.932Z,82.53
2017-04-16T06:55:43.470Z,82.21
2017-04-16T06:56:44.009Z,81.84
2017-04-16T06:57:44.696Z,81.87
2017-04-16T06:58:45.073Z,80.07
2017-04-16T06:59:45.609Z,77.49
2017-04-16T07:00:46.133Z,77.65
2017-04-16T07:01:46.659Z,78.78
2017-04-16T07:02:47.194Z,78.44
2017-04-16T07:03:47.722Z,79.02
2017-04-16T07:04:48.252Z,78.83
2017-04-16T07:05:48.932Z,76.67
2017-04-16T07:06:49.313Z,76.57
2017-04-16T07:07:49.845Z,77.04
2017-04-16T07:08:50.371Z,76.89
2017-04-16T07:09:50.907Z,75.84
2017-04-16T07:10:51.441Z,76.78
2017-04-16T07:11:51.965Z,77.54
2017-04-16T07:12:52.498Z,76.07
2017-04-16T07:13:53.030Z,76.44
2017-04-16T07:14:53.562Z,76.20
2017-04-16T07:15:54.099Z,75.78
2017-04-16T07:16:54.624Z,77.07
2017-04-16T07:17:55.152Z,76.07
2017-04-16T07:18:55.688Z,73.61
2017-04-16T07:19:56.218Z,73.55
2017-04-16T07:20:56.744Z,73.89
2017-04-16T07:21:57.285Z,72.80
2017-04-16T07:22:57.802Z,73.08
2017-04-16T07:23:58.343Z,70.97
2017-04-16T07:24:58.861Z,71.89
2017-04-16T07:25:59.544Z,72.25
2017-04-16T07:26:59.918Z,71.86
2017-04-16T07:28:00.455Z,72.01
2017-04-16T07:29:00.972Z,71.81
2017-04-16T07:30:01.503Z,72.38
2017-04-16T07:31:02.036Z,72.64
2017-04-16T07:32:02.562Z,73.85
2017-04-16T07:33:03.094Z,74.26
2017-04-16T07:34:03.625Z,74.68
2017-04-16T07:35:04.162Z,75.49
2017-04-16T07:36:04.694Z,76.78
2017-04-16T07:37:05.232Z,75.73
2017-04-16T07:38:05.765Z,75.84
2017-04-16T07:39:06.299Z,77.47
2017-04-16T07:40:06.981Z,76.15
2017-04-16T07:41:07.361Z,77.07
2017-04-16T07:42:07.903Z,76.91
2017-04-16T07:43:08.567Z,75.99
2017-04-16T07:44:08.949Z,76.94
2017-04-16T07:45:09.488Z,75.49
2017-04-16T07:46:10.021Z,77.25
2017-04-16T07:47:10.688Z,77.33
2017-04-16T07:48:11.069Z,77.25
2017-04-16T07:49:11.596Z,77.31
2017-04-16T07:50:12.278Z,77.47
2017-04-16T07:51:12.663Z,77.09
2017-04-16T07:52:13.185Z,79.15
2017-04-16T07:53:13.719Z,79.25
2017-04-16T07:54:14.249Z,80.52
2017-04-16T07:55:14.776Z,81.82
2017-04-16T07:56:15.339Z,82.77
2017-04-16T07:57:15.838Z,83.97
2017-04-16T07:58:16.363Z,85.53
2017-04-16T07:59:16.899Z,85.88
2017-04-16T08:00:17.426Z,86.60
2017-04-16T08:01:17.958Z,84.84
2017-04-16T08:02:18.486Z,85.61
2017-04-16T08:03:19.023Z,86.01
2017-04-16T08:04:19.845Z,85.35
2017-04-16T08:05:20.083Z,85.61
2017-04-16T08:06:20.608Z,85.83
2017-04-16T08:07:21.136Z,84.71
2017-04-16T08:08:21.813Z,85.03
2017-04-16T08:09:22.196Z,83.73
2017-04-16T08:10:22.727Z,82.21
2017-04-16T08:11:23.253Z,84.68
2017-04-16T08:12:23.935Z,84.63
2017-04-16T08:13:24.312Z,81.82
2017-04-16T08:14:24.876Z,81.26
2017-04-16T08:15:25.378Z,81.84
2017-04-16T08:16:25.900Z,81.08
2017-04-16T08:17:26.438Z,79.65
2017-04-16T08:18:26.974Z,80.39
2017-04-16T08:19:27.503Z,79.79
2017-04-16T08:20:28.036Z,78.59
2017-04-16T08:21:28.571Z,79.49
2017-04-16T08:22:29.248Z,78.05
2017-04-16T08:23:29.631Z,74.24
2017-04-16T08:24:30.162Z,75.37
2017-04-16T08:25:30.688Z,73.95
2017-04-16T08:26:31.218Z,76.02
2017-04-16T08:27:31.750Z,75.55
2017-04-16T08:28:32.279Z,73.16
2017-04-16T08:29:32.813Z,73.82
2017-04-16T08:30:33.343Z,73.71
2017-04-16T08:31:33.897Z,74.52
2017-04-16T08:32:34.402Z,74.42
2017-04-16T08:33:34.930Z,73.42
2017-04-16T08:34:35.465Z,73.58
2017-04-16T08:35:36.137Z,72.41
2017-04-16T08:36:36.526Z,72.36
2017-04-16T08:37:37.052Z,73.45
2017-04-16T08:38:37.733Z,73.85
2017-04-16T08:39:38.110Z,70.87
2017-04-16T08:40:38.639Z,73.16
2017-04-16T08:41:39.174Z,74.76
2017-04-16T08:42:39.700Z,75.60
2017-04-16T08:43:40.230Z,73.40
2017-04-16T08:44:40.909Z,73.82
2017-04-16T08:45:41.297Z,71.23
2017-04-16T08:46:41.813Z,71.39
2017-04-16T08:47:42.349Z,69.85
2017-04-16T08:48:42.879Z,69.28
2017-04-16T08:49:43.414Z,69.98
2017-04-16T08:50:43.934Z,72.56
2017-04-16T08:51:44.472Z,70.01
2017-04-16T08:52:44.997Z,72.01
2017-04-16T08:53:45.529Z,70.40
2017-04-16T08:54:46.058Z,69.65
2017-04-16T08:55:46.586Z,70.60
2017-04-16T08:56:47.114Z,72.25
2017-04-16T08:57:47.647Z,71.89
2017-04-16T08:58:48.176Z,71.62
2017-04-16T08:59:48.857Z,70.97
2017-04-16T09:00:49.245Z,72.90
2017-04-16T09:01:49.780Z,73.30
2017-04-16T09:02:50.311Z,73.06
2017-04-16T09:03:50.844Z,73.08
2017-04-16T09:04:51.370Z,75.39
2017-04-16T09:05:51.901Z,76.36
2017-04-16T09:06:52.462Z,74.84
2017-04-16T09:07:52.967Z,75.49
2017-04-16T09:08:53.493Z,73.30
2017-04-16T09:09:54.024Z,71.00
2017-04-16T09:10:54.555Z,71.34
2017-04-16T09:12:55.764Z,70.56
2017-04-16T09:13:56.290Z,69.82
2017-04-16T09:14:56.824Z,69.02
2017-04-16T09:15:57.202Z,66.53
2017-04-16T09:16:57.730Z,67.91
2017-04-16T09:17:58.262Z,65.14
2017-04-16T09:18:58.789Z,66.35
2017-04-16T09:19:59.325Z,65.58
2017-04-16T09:20:59.852Z,64.80
2017-04-16T09:22:00.381Z,64.98
2017-04-16T09:23:00.920Z,64.26
2017-04-16T09:24:01.442Z,66.77
2017-04-16T09:25:01.971Z,63.49
2017-04-16T09:26:02.501Z,62.66
2017-04-16T09:27:03.181Z,60.68
2017-04-16T09:28:03.563Z,61.22
2017-04-16T09:29:04.098Z,60.73
2017-04-16T09:30:04.622Z,60.30
2017-04-16T09:31:05.154Z,61.74
2017-04-16T09:32:05.685Z,62.27
2017-04-16T09:33:06.213Z,61.84
2017-04-16T09:34:06.742Z,61.14
2017-04-16T09:35:07.275Z,59.92
2017-04-16T09:36:07.804Z,60.55
2017-04-16T09:37:08.483Z,58.33
2017-04-16T09:38:09.012Z,60.01
2017-04-16T09:39:09.393Z,59.45
2017-04-16T09:40:09.918Z,56.90
2017-04-16T09:41:10.451Z,54.83
2017-04-16T09:42:10.986Z,53.03
2017-04-16T09:43:11.538Z,55.78
2017-04-16T09:44:12.054Z,52.85
2017-04-16T09:45:12.579Z,52.75
2017-04-16T09:46:13.117Z,54.89
2017-04-16T09:47:13.635Z,53.90
2017-04-16T09:48:14.170Z,52.98
2017-04-16T09:49:14.697Z,54.78
2017-04-16T09:50:15.231Z,56.33
2017-04-16T09:51:15.764Z,57.15
2017-04-16T09:52:16.293Z,57.26
2017-04-16T09:53:16.823Z,55.93
2017-04-16T09:54:17.354Z,56.65
2017-04-16T09:55:17.877Z,58.07
2017-04-16T09:56:18.411Z,57.87
2017-04-16T09:57:19.090Z,57.74
2017-04-16T09:58:19.469Z,57.21
2017-04-16T09:59:19.998Z,59.28
2017-04-16T10:00:20.530Z,61.46
2017-04-16T10:01:21.074Z,60.45
2017-04-16T10:02:21.593Z,58.71
2017-04-16T10:03:22.130Z,59.12
2017-04-16T10:04:22.655Z,54.78
2017-04-16T10:05:23.179Z,58.74
2017-04-16T10:06:23.855Z,57.69
2017-04-16T10:07:24.245Z,55.98
2017-04-16T10:08:24.771Z,54.63
2017-04-16T10:09:25.296Z,55.83
2017-04-16T10:10:25.829Z,53.06
2017-04-16T10:11:26.368Z,53.69
2017-04-16T10:12:26.891Z,52.07
2017-04-16T10:13:27.568Z,53.29
2017-04-16T10:14:27.951Z,55.83
2017-04-16T10:15:28.632Z,54.30
2017-04-16T10:16:29.012Z,52.57
2017-04-16T10:17:29.689Z,50.33
2017-04-16T10:18:30.071Z,48.59
2017-04-16T10:19:30.599Z,49.22
2017-04-16T10:20:31.136Z,49.85
2017-04-16T10:21:31.667Z,48.48
2017-04-16T10:22:32.199Z,49.06
2017-04-16T10:23:32.731Z,47.76
2017-04-16T10:24:33.269Z,47.88
2017-04-16T10:25:33.802Z,51.49
2017-04-16T10:26:34.332Z,46.75
2017-04-16T10:27:34.913Z,47.53
2017-04-16T10:28:35.397Z,44.72
2017-04-16T10:29:35.921Z,43.92
2017-04-16T10:30:36.450Z,47.51
2017-04-16T10:31:36.982Z,46.81
2017-04-16T10:32:37.658Z,45.00
2017-04-16T10:33:38.051Z,45.87
2017-04-16T10:34:38.571Z,45.37
2017-04-16T10:35:39.095Z,46.15
2017-04-16T10:36:39.628Z,46.68
2017-04-16T10:37:40.155Z,47.91
2017-04-16T10:38:40.685Z,47.26
2017-04-16T10:39:41.362Z,46.35
2017-04-16T10:40:41.742Z,44.20
2017-04-16T10:41:42.269Z,44.93
2017-04-16T10:42:42.801Z,43.22
2017-04-16T10:43:43.331Z,44.30
2017-04-16T10:44:43.861Z,47.00
2017-04-16T10:45:44.391Z,45.80
2017-04-16T10:46:44.922Z,44.97
2017-04-16T10:47:45.457Z,46.25
2017-04-16T10:48:45.987Z,45.93
2017-04-16T10:49:46.509Z,46.50
2017-04-16T10:50:47.043Z,48.89
2017-04-16T10:51:47.581Z,43.85
2017-04-16T10:52:48.104Z,45.05
2017-04-16T10:53:48.639Z,47.36
2017-04-16T10:54:49.163Z,48.34
2017-04-16T10:55:49.691Z,46.68
2017-04-16T10:56:50.223Z,47.38
2017-04-16T10:57:50.899Z,46.48
2017-04-16T10:58:51.286Z,50.27
2017-04-16T10:59:51.963Z,51.84
2017-04-16T11:00:52.347Z,52.88
2017-04-16T11:01:52.881Z,57.82
2017-04-16T11:02:53.408Z,60.71
2017-04-16T11:03:53.933Z,63.64
2017-04-16T11:04:54.472Z,63.07
2017-04-16T11:05:55.008Z,63.38
2017-04-16T11:06:55.539Z,65.68
2017-04-16T11:07:56.072Z,70.32
2017-04-16T11:08:56.603Z,61.69
2017-04-16T11:09:57.133Z,62.20
2017-04-16T11:10:57.666Z,63.49
2017-04-16T11:11:58.200Z,63.02
2017-04-16T11:12:58.730Z,61.02
2017-04-16T11:13:59.261Z,60.14
2017-04-16T11:14:59.792Z,57.56
2017-04-16T11:16:00.472Z,59.58
2017-04-16T11:17:00.858Z,65.58
2017-04-16T11:18:01.388Z,62.56
2017-04-16T11:19:01.911Z,60.09
2017-04-16T11:20:02.449Z,55.57
2017-04-16T11:21:02.971Z,58.94
2017-04-16T11:22:03.498Z,60.20
2017-04-16T11:23:04.033Z,57.46
2017-04-16T11:24:04.567Z,57.38
2017-04-16T11:25:05.089Z,56.93
2017-04-16T11:26:05.616Z,57.30
2017-04-16T11:27:06.155Z,60.27
2017-04-16T11:28:06.676Z,62.40
2017-04-16T11:29:07.210Z,60.17
2017-04-16T11:30:07.737Z,62.74
2017-04-16T11:31:08.266Z,62.74
2017-04-16T11:32:08.803Z,62.25
2017-04-16T11:33:09.475Z,65.06
2017-04-16T11:34:09.860Z,61.71
2017-04-16T11:35:10.390Z,59.15
2017-04-16T11:36:10.920Z,60.12
2017-04-16T11:37:11.448Z,59.22
2017-04-16T11:38:11.979Z,63.49
2017-04-16T11:39:12.511Z,54.83
2017-04-16T11:40:13.042Z,55.35
2017-04-16T11:41:13.572Z,57.15
2017-04-16T11:42:14.108Z,57.48
2017-04-16T11:43:14.629Z,58.33
2017-04-16T11:44:15.160Z,53.95
2017-04-16T11:45:15.694Z,52.93
2017-04-16T11:46:16.226Z,55.27
2017-04-16T11:47:16.768Z,50.35
2017-04-16T11:48:17.290Z,53.72
2017-04-16T11:49:17.823Z,55.39
2017-04-16T11:50:18.352Z,50.68
2017-04-16T11:51:18.886Z,53.49
2017-04-16T11:52:19.410Z,56.44
2017-04-16T11:53:19.960Z,53.16
2017-04-16T11:54:20.476Z,50.86
2017-04-16T11:55:21.001Z,46.43
2017-04-16T11:56:21.545Z,47.51
2017-04-16T11:57:22.069Z,50.80
2017-04-16T11:58:22.606Z,49.85
2017-04-16T11:59:23.130Z,52.65
2017-04-16T12:00:23.652Z,48.97
2017-04-16T12:01:24.183Z,50.63
2017-04-16T12:02:24.731Z,47.56
2017-04-16T12:04:25.771Z,49.09
2017-04-16T12:05:26.303Z,48.64
2017-04-16T12:06:26.831Z,49.72
2017-04-16T12:07:27.365Z,47.65
2017-04-16T12:08:27.902Z,45.48
2017-04-16T12:09:28.422Z,48.54
2017-04-16T12:10:29.101Z,47.15
2017-04-16T12:11:29.479Z,50.00
2017-04-16T12:12:30.008Z,50.93
2017-04-16T12:13:30.536Z,51.21
2017-04-16T12:14:31.064Z,50.83
2017-04-16T12:15:31.590Z,51.44
2017-04-16T12:16:32.127Z,55.50
2017-04-16T12:17:32.654Z,51.97
2017-04-16T12:18:33.333Z,53.75
2017-04-16T12:19:33.718Z,49.69
2017-04-16T12:20:34.270Z,48.64
2017-04-16T12:21:34.769Z,50.66
2017-04-16T12:22:35.299Z,47.61
2017-04-16T12:23:35.829Z,47.61
2017-04-16T12:24:36.357Z,49.06
2017-04-16T12:25:36.889Z,56.77
2017-04-16T12:26:37.423Z,48.92
2017-04-16T12:27:37.951Z,48.61
2017-04-16T12:28:38.488Z,46.05
2017-04-16T12:29:39.017Z,45.40
2017-04-16T12:30:39.569Z,48.56
2017-04-16T12:31:40.083Z,48.59
2017-04-16T12:32:40.763Z,46.50
2017-04-16T12:33:41.143Z,47.73
2017-04-16T12:34:41.672Z,47.03
2017-04-16T12:35:42.204Z,47.31
2017-04-16T12:36:42.736Z,48.94
2017-04-16T12:37:43.263Z,47.68
2017-04-16T12:38:43.945Z,46.95
2017-04-16T12:39:44.325Z,47.31
2017-04-16T12:40:44.850Z,46.93
2017-04-16T12:41:45.384Z,48.39
2017-04-16T12:42:45.911Z,49.57
2017-04-16T12:43:46.445Z,47.81
2017-04-16T12:44:46.982Z,47.33
2017-04-16T12:45:47.510Z,49.19
2017-04-16T12:46:48.035Z,43.60
2017-04-16T12:47:48.566Z,44.85
2017-04-16T12:48:49.090Z,47.36
2017-04-16T12:49:49.624Z,46.73
2017-04-16T12:50:50.149Z,47.36
2017-04-16T12:51:50.681Z,48.11
2017-04-16T12:52:51.213Z,48.36
2017-04-16T12:53:51.741Z,48.56
2017-04-16T12:54:52.290Z,49.09
2017-04-16T12:55:52.800Z,47.38
2017-04-16T12:56:53.332Z,48.11
2017-04-16T12:57:53.861Z,47.20
2017-04-16T12:58:54.389Z,46.32
2017-04-16T12:59:54.919Z,48.21
2017-04-16T13:00:55.450Z,47.31